Time;durP1;ratioP1;P1;durP2;ratioP2;P2;SDS_P1;SDS_P2;PMS_P1;PMS_P2;Temp;Humidity;BMP_temperature;BMP_pressure;BME280_temperature;BME280_humidity;BME280_pressure;Samples;Min_cycle;Max_cycle;Signal;HPM_P1;HPM_P2
2022/12/09 00:01:03;;;;;;;4.90;1.00;;;1.00;99.90;;;;;;5095540;28;20537;-56
2022/12/09 00:03:30;;;;;;;2.20;1.03;;;0.90;99.90;;;;;;5094906;28;20460;-54
2022/12/09 00:05:57;;;;;;;2.10;1.03;;;0.90;99.90;;;;;;5114640;28;20504;-56
2022/12/09 00:08:24;;;;;;;3.60;1.47;;;0.80;99.90;;;;;;5115290;28;20549;-54
2022/12/09 00:10:52;;;;;;;3.00;1.17;;;0.70;99.90;;;;;;5115539;28;20465;-54
2022/12/09 00:13:19;;;;;;;2.90;1.37;;;0.70;99.90;;;;;;5115098;28;20825;-55
2022/12/09 00:15:46;;;;;;;3.17;1.10;;;0.70;99.90;;;;;;5115820;28;20497;-55
2022/12/09 00:18:13;;;;;;;4.03;1.10;;;0.80;99.90;;;;;;5115792;28;20518;-56
2022/12/09 00:20:41;;;;;;;1.70;1.00;;;0.80;99.90;;;;;;5117643;28;20571;-56
2022/12/09 00:23:08;;;;;;;1.80;1.00;;;0.80;99.90;;;;;;5118870;28;20499;-51
2022/12/09 00:25:35;;;;;;;2.70;1.13;;;0.90;99.90;;;;;;5119099;28;20835;-55
2022/12/09 00:28:03;;;;;;;1.70;0.90;;;1.00;99.90;;;;;;5118987;28;20732;-57
2022/12/09 00:30:30;;;;;;;2.87;1.20;;;1.00;99.90;;;;;;5118303;28;20517;-55
2022/12/09 00:32:57;;;;;;;8.57;1.10;;;1.10;99.90;;;;;;5117383;28;20539;-56
2022/12/09 00:35:24;;;;;;;2.77;1.20;;;1.10;99.90;;;;;;5117571;28;20807;-57
2022/12/09 00:37:51;;;;;;;2.10;1.00;;;1.10;99.90;;;;;;5118155;28;20544;-56
2022/12/09 00:40:18;;;;;;;2.70;1.20;;;1.00;99.90;;;;;;5118122;28;20954;-56
2022/12/09 00:42:45;;;;;;;2.20;1.07;;;0.90;99.90;;;;;;5118872;28;20922;-57
2022/12/09 00:45:13;;;;;;;2.33;1.00;;;0.80;99.90;;;;;;5119174;28;20815;-57
2022/12/09 00:47:40;;;;;;;2.03;1.00;;;0.80;99.90;;;;;;5118625;28;20456;-56
2022/12/09 00:50:08;;;;;;;2.20;1.07;;;0.90;99.90;;;;;;5119212;28;20527;-55
2022/12/09 00:52:35;;;;;;;2.60;0.97;;;0.80;99.90;;;;;;5118879;28;20453;-57
2022/12/09 00:55:02;;;;;;;3.83;0.90;;;0.80;99.90;;;;;;5118992;28;20771;-57
2022/12/09 00:57:28;;;;;;;1.80;0.80;;;0.70;99.90;;;;;;5118917;28;20452;-52
2022/12/09 00:59:55;;;;;;;3.43;0.83;;;0.70;99.90;;;;;;5118583;28;20965;-57
2022/12/09 01:02:24;;;;;;;3.80;0.93;;;0.60;99.90;;;;;;5119279;28;20492;-56
2022/12/09 01:04:51;;;;;;;2.00;1.10;;;0.60;99.90;;;;;;5118314;28;20950;-52
2022/12/09 01:07:18;;;;;;;1.50;0.90;;;0.50;99.90;;;;;;5118724;28;20472;-55
2022/12/09 01:09:45;;;;;;;1.77;1.00;;;0.60;99.90;;;;;;5117913;28;20531;-56
2022/12/09 01:12:12;;;;;;;1.60;1.10;;;0.70;99.90;;;;;;5118005;28;20448;-55
2022/12/09 01:14:39;;;;;;;2.70;1.40;;;0.70;99.90;;;;;;5118244;28;20903;-56
2022/12/09 01:17:06;;;;;;;2.93;1.00;;;0.70;99.90;;;;;;5118558;28;20492;-56
2022/12/09 01:19:34;;;;;;;1.80;1.03;;;0.60;99.90;;;;;;5117714;28;20441;-55
2022/12/09 01:22:01;;;;;;;1.97;0.90;;;0.80;99.90;;;;;;5117883;28;20452;-57
2022/12/09 01:24:28;;;;;;;1.77;0.80;;;0.90;99.90;;;;;;5118327;28;20465;-56
2022/12/09 01:26:55;;;;;;;1.73;1.00;;;0.90;99.90;;;;;;5118827;28;20484;-54
2022/12/09 01:29:22;;;;;;;3.20;1.13;;;0.90;99.90;;;;;;5117844;28;20561;-56
2022/12/09 01:31:48;;;;;;;1.50;0.90;;;1.00;99.90;;;;;;5117433;28;20930;-52
2022/12/09 01:34:15;;;;;;;2.30;1.00;;;1.00;99.90;;;;;;5118129;28;20828;-57
2022/12/09 01:36:46;;;;;;;2.47;1.03;;;1.00;99.90;;;;;;5118517;28;20505;-52
2022/12/09 01:39:13;;;;;;;3.17;1.23;;;0.80;99.90;;;;;;5118131;28;20821;-53
2022/12/09 01:41:43;;;;;;;1.80;1.00;;;0.90;99.90;;;;;;5118418;28;20488;-56
2022/12/09 01:44:16;;;;;;;1.03;0.70;;;0.90;99.90;;;;;;5117187;28;20428;-57
2022/12/09 01:46:43;;;;;;;2.37;1.20;;;0.90;99.90;;;;;;5117899;28;20519;-56
2022/12/09 01:49:15;;;;;;;2.77;1.23;;;0.90;99.90;;;;;;5118365;28;20751;-55
2022/12/09 01:51:45;;;;;;;1.93;0.97;;;1.10;99.90;;;;;;5118456;28;20445;-55
2022/12/09 01:54:12;;;;;;;2.63;1.23;;;0.90;99.90;;;;;;5118326;28;20483;-53
2022/12/09 01:56:40;;;;;;;2.27;1.20;;;0.70;99.90;;;;;;5117283;28;20496;-55
2022/12/09 01:59:10;;;;;;;2.70;1.20;;;0.60;99.90;;;;;;5117933;28;20923;-55
2022/12/09 02:01:38;;;;;;;1.77;0.97;;;0.50;99.90;;;;;;5117160;28;20571;-54
2022/12/09 02:04:05;;;;;;;3.93;1.37;;;0.40;99.90;;;;;;5117372;28;20598;-57
2022/12/09 02:06:35;;;;;;;3.10;1.33;;;0.40;99.90;;;;;;5117568;28;20543;-52
2022/12/09 02:09:03;;;;;;;3.90;1.07;;;0.40;99.90;;;;;;5117486;28;20472;-56
2022/12/09 02:11:44;;;;;;;3.03;1.30;;;0.30;99.90;;;;;;5117592;28;20904;-55
2022/12/09 02:14:18;;;;;;;2.30;0.83;;;0.40;99.90;;;;;;5117688;28;20462;-55
2022/12/09 02:16:54;;;;;;;1.70;0.93;;;0.50;99.90;;;;;;5117358;28;20878;-56
2022/12/09 02:19:33;;;;;;;2.10;1.40;;;0.70;99.90;;;;;;5116856;28;20523;-56
2022/12/09 02:22:00;;;;;;;3.17;1.00;;;0.60;99.90;;;;;;5117046;28;20537;-56
2022/12/09 02:24:40;;;;;;;3.90;1.17;;;0.50;99.90;;;;;;5116538;28;20444;-56
2022/12/09 02:27:12;;;;;;;2.03;1.27;;;0.50;99.90;;;;;;5116881;28;20484;-57
2022/12/09 02:30:00;;;;;;;3.53;1.40;;;0.40;99.90;;;;;;5117452;28;20535;-57
2022/12/09 02:32:52;;;;;;;3.03;1.20;;;0.20;99.90;;;;;;5117662;28;20961;-56
2022/12/09 02:35:26;;;;;;;2.60;1.00;;;0.20;99.90;;;;;;5116771;28;20487;-57
2022/12/09 02:37:59;;;;;;;2.27;0.90;;;0.20;99.90;;;;;;5117145;28;20483;-56
2022/12/09 02:40:30;;;;;;;2.80;0.97;;;0.20;99.90;;;;;;5117019;28;20848;-57
2022/12/09 02:42:59;;;;;;;3.03;1.07;;;0.30;99.90;;;;;;5116202;28;20492;-55
2022/12/09 02:45:29;;;;;;;1.90;0.80;;;0.50;99.90;;;;;;5117457;28;20460;-57
2022/12/09 02:48:00;;;;;;;1.30;0.90;;;0.60;99.90;;;;;;5117544;28;20802;-54
2022/12/09 02:50:32;;;;;;;1.60;0.90;;;0.70;99.90;;;;;;5116826;28;20415;-53
2022/12/09 02:53:01;;;;;;;2.50;1.17;;;0.60;99.90;;;;;;5117116;28;20547;-55
2022/12/09 02:55:31;;;;;;;1.57;0.97;;;0.60;99.90;;;;;;5116920;28;20502;-55
2022/12/09 02:58:01;;;;;;;1.63;1.30;;;0.50;99.90;;;;;;5117163;28;20547;-56
2022/12/09 03:00:28;;;;;;;2.93;1.60;;;0.60;99.90;;;;;;5116915;28;20455;-51
2022/12/09 03:02:57;;;;;;;1.53;0.93;;;0.60;99.90;;;;;;5116219;28;20896;-56
2022/12/09 03:05:33;;;;;;;1.40;0.97;;;0.50;99.90;;;;;;5116685;28;20577;-55
2022/12/09 03:08:08;;;;;;;2.30;0.80;;;0.50;99.90;;;;;;5116130;28;20449;-55
2022/12/09 03:10:39;;;;;;;1.40;1.10;;;0.40;99.90;;;;;;5115543;28;20901;-59
2022/12/09 03:13:13;;;;;;;3.07;1.00;;;0.40;99.90;;;;;;5115353;28;20480;-54
2022/12/09 03:15:44;;;;;;;3.37;1.03;;;0.40;99.90;;;;;;5115184;28;20475;-55
2022/12/09 03:18:16;;;;;;;2.43;1.10;;;0.50;99.90;;;;;;5114810;28;20492;-56
2022/12/09 03:20:47;;;;;;;1.77;1.00;;;0.60;99.90;;;;;;5115182;28;20971;-55
2022/12/09 03:23:19;;;;;;;2.03;1.20;;;0.60;99.90;;;;;;5116047;28;20452;-57
2022/12/09 03:25:48;;;;;;;2.40;1.07;;;0.70;99.90;;;;;;5116186;28;20441;-53
2022/12/09 03:28:21;;;;;;;2.27;1.10;;;0.80;99.90;;;;;;5116621;28;20458;-56
2022/12/09 03:30:48;;;;;;;1.70;1.03;;;0.90;99.90;;;;;;5116285;28;20906;-56
2022/12/09 03:33:17;;;;;;;2.40;1.07;;;1.00;99.90;;;;;;5116886;28;20484;-56
2022/12/09 03:35:50;;;;;;;4.17;1.10;;;1.00;99.90;;;;;;5116089;28;20822;-55
2022/12/09 03:38:20;;;;;;;2.60;1.00;;;0.90;99.90;;;;;;5116216;28;20826;-55
2022/12/09 03:40:54;;;;;;;1.57;0.70;;;0.70;99.90;;;;;;5116507;28;20864;-54
2022/12/09 03:43:25;;;;;;;2.07;0.90;;;0.70;99.90;;;;;;5116709;28;20903;-54
2022/12/09 03:45:53;;;;;;;1.40;0.80;;;0.60;99.90;;;;;;5116469;28;20567;-53
2022/12/09 03:48:20;;;;;;;2.57;1.07;;;0.50;99.90;;;;;;5108296;28;20538;-54
2022/12/09 03:50:55;;;;;;;1.77;1.20;;;0.50;99.90;;;;;;5116668;28;20454;-54
2022/12/09 03:53:31;;;;;;;1.60;0.87;;;0.50;99.90;;;;;;5116513;28;20475;-55
2022/12/09 03:56:02;;;;;;;1.90;1.17;;;0.60;99.90;;;;;;5119987;28;20471;-54
2022/12/09 03:58:33;;;;;;;2.30;0.90;;;0.40;99.90;;;;;;5120551;28;20531;-53
2022/12/09 04:01:01;;;;;;;1.80;1.00;;;0.40;99.90;;;;;;5120369;28;20516;-56
2022/12/09 04:03:28;;;;;;;2.07;1.00;;;0.30;99.90;;;;;;5119863;28;20472;-55
2022/12/09 04:05:57;;;;;;;2.63;1.00;;;0.20;99.90;;;;;;5120424;28;20472;-56
2022/12/09 04:08:24;;;;;;;2.60;1.20;;;0.20;99.90;;;;;;5120683;28;20480;-56
2022/12/09 04:10:50;;;;;;;2.07;0.83;;;0.10;99.90;;;;;;5119942;28;20531;-54
2022/12/09 04:13:17;;;;;;;2.50;1.00;;;0.10;99.90;;;;;;5120347;28;20479;-56
2022/12/09 04:15:44;;;;;;;3.33;1.20;;;0.10;99.90;;;;;;5119612;28;20852;-57
2022/12/09 04:18:11;;;;;;;3.40;1.10;;;0.20;99.90;;;;;;5119278;28;20480;-54
2022/12/09 04:20:38;;;;;;;2.40;1.20;;;-0.10;99.90;;;;;;5120060;28;20570;-55
2022/12/09 04:23:06;;;;;;;4.70;1.43;;;-0.30;99.90;;;;;;5119484;28;20539;-56
2022/12/09 04:25:33;;;;;;;3.10;0.90;;;-0.20;99.90;;;;;;5119831;28;20891;-55
2022/12/09 04:28:00;;;;;;;2.70;1.03;;;-0.20;99.90;;;;;;5120458;28;20457;-56
2022/12/09 04:30:27;;;;;;;2.20;1.10;;;-0.20;99.90;;;;;;5119614;28;20517;-51
2022/12/09 04:32:54;;;;;;;2.10;1.40;;;-0.20;99.90;;;;;;5118366;28;20544;-52
2022/12/09 04:35:21;;;;;;;2.73;1.10;;;0.00;99.90;;;;;;5109349;28;20444;-53
2022/12/09 04:37:48;;;;;;;2.10;0.90;;;0.20;99.90;;;;;;5118496;28;20923;-55
2022/12/09 04:40:17;;;;;;;2.73;1.10;;;0.50;99.90;;;;;;5118461;28;20472;-52
2022/12/09 04:42:44;;;;;;;1.83;0.93;;;0.70;99.90;;;;;;5117881;28;20507;-54
2022/12/09 04:45:11;;;;;;;3.10;1.40;;;0.70;99.90;;;;;;5117924;28;20487;-55
2022/12/09 04:47:38;;;;;;;2.50;1.30;;;0.60;99.90;;;;;;5119187;28;20826;-52
2022/12/09 04:50:06;;;;;;;4.40;1.07;;;0.50;99.90;;;;;;5119615;28;20484;-56
2022/12/09 04:52:33;;;;;;;2.03;1.10;;;0.50;99.90;;;;;;5119464;28;20891;-56
2022/12/09 04:55:01;;;;;;;3.43;1.77;;;0.60;99.90;;;;;;5117837;28;20448;-56
2022/12/09 04:57:29;;;;;;;2.07;1.07;;;0.70;99.90;;;;;;5117611;28;20572;-54
2022/12/09 04:59:56;;;;;;;2.27;1.03;;;0.70;99.90;;;;;;5118192;28;20623;-54
2022/12/09 05:02:23;;;;;;;1.90;1.00;;;0.70;99.90;;;;;;5118880;28;20527;-57
2022/12/09 05:04:50;;;;;;;2.73;1.43;;;0.60;99.90;;;;;;5119012;28;20946;-56
2022/12/09 05:07:17;;;;;;;2.30;1.20;;;0.70;99.90;;;;;;5117422;28;20936;-56
2022/12/09 05:09:44;;;;;;;2.03;1.03;;;0.70;99.90;;;;;;5116902;28;20802;-54
2022/12/09 05:12:11;;;;;;;3.33;1.10;;;0.80;99.90;;;;;;5117463;28;20543;-54
2022/12/09 05:14:39;;;;;;;1.40;0.97;;;0.60;99.90;;;;;;5116996;28;20930;-49
2022/12/09 05:17:06;;;;;;;4.60;1.80;;;0.60;99.90;;;;;;5117089;28;20954;-54
2022/12/09 05:19:33;;;;;;;3.73;1.13;;;0.60;99.90;;;;;;5116851;28;20880;-53
2022/12/09 05:22:00;;;;;;;4.27;1.27;;;0.70;99.90;;;;;;5117523;28;20579;-55
2022/12/09 05:24:27;;;;;;;2.20;1.10;;;0.70;99.90;;;;;;5118733;28;20484;-55
2022/12/09 05:26:54;;;;;;;3.10;1.40;;;0.60;99.90;;;;;;5118434;28;20479;-56
2022/12/09 05:29:21;;;;;;;3.53;1.40;;;0.40;99.90;;;;;;5109732;28;20535;-55
2022/12/09 05:31:51;;;;;;;2.63;0.90;;;0.20;99.90;;;;;;5117729;28;20484;-54
2022/12/09 05:34:18;;;;;;;1.93;1.00;;;0.20;99.90;;;;;;5117721;28;20535;-53
2022/12/09 05:36:45;;;;;;;1.87;1.00;;;0.40;99.90;;;;;;5117789;28;20499;-55
2022/12/09 05:39:11;;;;;;;8.60;1.20;;;0.30;99.90;;;;;;5118188;28;20449;-56
2022/12/09 05:41:40;;;;;;;2.17;1.50;;;0.40;99.90;;;;;;5117866;28;20985;-55
2022/12/09 05:44:07;;;;;;;2.87;1.17;;;0.60;99.90;;;;;;5118510;28;20517;-56
2022/12/09 05:46:33;;;;;;;4.03;1.20;;;0.60;99.90;;;;;;5117530;28;20488;-55
2022/12/09 05:49:02;;;;;;;2.80;1.50;;;0.60;99.90;;;;;;5117471;28;20484;-56
2022/12/09 05:51:30;;;;;;;3.07;1.50;;;0.40;99.90;;;;;;5118007;28;20453;-54
2022/12/09 05:53:59;;;;;;;2.93;1.30;;;0.40;99.90;;;;;;5116721;28;20793;-56
2022/12/09 05:56:27;;;;;;;3.67;1.83;;;0.40;99.90;;;;;;5116712;28;20481;-54
2022/12/09 05:58:54;;;;;;;3.53;1.20;;;0.20;99.90;;;;;;5117004;28;20812;-49
2022/12/09 06:01:23;;;;;;;3.23;1.70;;;0.30;99.90;;;;;;5115103;28;20580;-53
2022/12/09 06:03:50;;;;;;;2.90;1.40;;;0.40;99.90;;;;;;5117731;28;20532;-54
2022/12/09 06:06:21;;;;;;;1.90;1.00;;;0.50;99.90;;;;;;5117361;28;20543;-56
2022/12/09 06:08:48;;;;;;;2.57;1.10;;;0.60;99.90;;;;;;5117294;28;20527;-55
2022/12/09 06:11:17;;;;;;;4.60;1.40;;;0.60;99.90;;;;;;5117268;28;20548;-50
2022/12/09 06:13:44;;;;;;;4.13;1.03;;;0.50;99.90;;;;;;5117659;28;20808;-50
2022/12/09 06:16:11;;;;;;;2.17;1.00;;;0.50;99.90;;;;;;5117968;28;20483;-49
2022/12/09 06:18:38;;;;;;;2.20;0.93;;;0.40;99.90;;;;;;5117231;28;20483;-49
2022/12/09 06:21:06;;;;;;;2.67;1.30;;;0.40;99.90;;;;;;5116819;28;20931;-52
2022/12/09 06:23:35;;;;;;;2.30;1.17;;;0.40;99.90;;;;;;5115280;28;20547;-54
2022/12/09 06:26:02;;;;;;;3.63;1.80;;;0.40;99.90;;;;;;5116629;28;20886;-52
2022/12/09 06:28:29;;;;;;;2.23;1.13;;;0.60;99.90;;;;;;5115688;28;20487;-48
2022/12/09 06:30:57;;;;;;;3.97;1.07;;;0.40;99.90;;;;;;5116449;28;20472;-52
2022/12/09 06:33:25;;;;;;;2.53;1.20;;;0.30;99.90;;;;;;5116180;28;20494;-49
2022/12/09 06:35:52;;;;;;;2.53;1.07;;;0.20;99.90;;;;;;5117280;28;20445;-51
2022/12/09 06:38:18;;;;;;;4.53;1.60;;;0.30;99.90;;;;;;5116620;28;20483;-51
2022/12/09 06:40:47;;;;;;;4.87;1.50;;;0.20;99.90;;;;;;5115653;28;20890;-48
2022/12/09 06:43:14;;;;;;;2.97;1.20;;;0.20;99.90;;;;;;5115852;28;20520;-52
2022/12/09 06:45:41;;;;;;;2.67;1.43;;;0.40;99.90;;;;;;5116244;28;20441;-52
2022/12/09 06:48:08;;;;;;;3.60;1.10;;;0.40;99.90;;;;;;5116094;28;20501;-53
2022/12/09 06:50:34;;;;;;;2.03;1.53;;;0.40;99.90;;;;;;5116862;28;20753;-48
2022/12/09 06:53:01;;;;;;;3.00;1.30;;;0.30;99.90;;;;;;5115540;28;20808;-51
2022/12/09 06:55:28;;;;;;;4.23;1.40;;;0.50;99.90;;;;;;5114841;28;20440;-52
2022/12/09 06:57:58;;;;;;;2.57;1.27;;;0.50;99.90;;;;;;5115452;28;20922;-53
2022/12/09 07:00:25;;;;;;;3.83;1.30;;;0.40;99.90;;;;;;5116647;28;20492;-48
2022/12/09 07:02:53;;;;;;;3.60;1.37;;;0.40;99.90;;;;;;5114599;28;20979;-51
2022/12/09 07:05:20;;;;;;;3.93;1.17;;;0.40;99.90;;;;;;5116126;28;20511;-49
2022/12/09 07:07:50;;;;;;;2.37;1.30;;;0.40;99.90;;;;;;5115203;28;20820;-49
2022/12/09 07:10:17;;;;;;;3.63;1.60;;;0.30;99.90;;;;;;5114824;28;20447;-50
2022/12/09 07:12:44;;;;;;;3.70;1.20;;;0.30;99.90;;;;;;5114369;28;20502;-47
2022/12/09 07:15:13;;;;;;;1.90;1.20;;;0.30;99.90;;;;;;5115767;27;20521;-48
2022/12/09 07:17:40;;;;;;;3.50;1.40;;;0.20;99.90;;;;;;5133798;27;20452;-51
2022/12/09 07:20:08;;;;;;;2.70;1.40;;;0.20;99.90;;;;;;5115255;28;20484;-52
2022/12/09 07:22:35;;;;;;;3.40;1.20;;;0.30;99.90;;;;;;5114137;28;20602;-47
2022/12/09 07:25:02;;;;;;;2.80;1.20;;;0.50;99.90;;;;;;5114876;28;20895;-52
2022/12/09 07:27:29;;;;;;;2.13;1.37;;;0.70;99.90;;;;;;5114730;28;20503;-50
2022/12/09 07:29:57;;;;;;;2.63;1.40;;;0.90;99.90;;;;;;5113854;28;20454;-53
2022/12/09 07:32:25;;;;;;;1.80;1.10;;;1.00;99.90;;;;;;5111353;28;20456;-48
2022/12/09 07:34:52;;;;;;;4.30;1.80;;;1.10;99.90;;;;;;5113831;28;20451;-50
2022/12/09 07:37:19;;;;;;;4.27;1.60;;;1.10;99.90;;;;;;5113545;28;20451;-53
2022/12/09 07:39:46;;;;;;;5.70;1.97;;;1.10;99.90;;;;;;5094319;28;20438;-52
2022/12/09 07:42:12;;;;;;;2.37;1.60;;;1.10;99.90;;;;;;5112683;28;20567;-52
2022/12/09 07:44:39;;;;;;;2.50;1.40;;;1.10;99.90;;;;;;5113956;28;20476;-58
2022/12/09 07:47:06;;;;;;;5.80;1.70;;;1.20;99.90;;;;;;5096025;28;20525;-52
2022/12/09 07:49:34;;;;;;;4.60;1.50;;;1.20;99.90;;;;;;5105155;28;20815;-52
2022/12/09 07:52:01;;;;;;;4.90;1.53;;;1.40;99.90;;;;;;5109759;28;20465;-50
2022/12/09 07:54:28;;;;;;;2.90;1.33;;;1.50;99.90;;;;;;5111235;28;20786;-54
2022/12/09 07:56:55;;;;;;;1.80;1.10;;;1.70;99.90;;;;;;5107768;28;20469;-52
2022/12/09 07:59:22;;;;;;;4.00;1.90;;;1.80;99.90;;;;;;5111298;28;20481;-53
2022/12/09 08:01:49;;;;;;;5.10;1.87;;;2.00;99.90;;;;;;5106454;28;20575;-52
2022/12/09 08:04:16;;;;;;;5.60;1.70;;;2.00;99.90;;;;;;5096850;28;20480;-51
2022/12/09 08:06:44;;;;;;;3.73;1.20;;;1.80;99.90;;;;;;5108445;28;20874;-51
2022/12/09 08:09:13;;;;;;;2.10;1.40;;;1.60;99.90;;;;;;5112728;28;20535;-52
2022/12/09 08:11:41;;;;;;;4.93;1.10;;;1.40;99.90;;;;;;5109105;28;20491;-50
2022/12/09 08:14:10;;;;;;;6.20;1.30;;;1.70;99.90;;;;;;5108098;28;20874;-46
2022/12/09 08:16:37;;;;;;;4.13;1.80;;;1.80;99.90;;;;;;5113313;28;20921;-50
2022/12/09 08:19:04;;;;;;;3.27;1.70;;;2.20;99.90;;;;;;5106699;28;20521;-52
2022/12/09 08:21:32;;;;;;;4.10;1.40;;;2.50;99.90;;;;;;5109884;28;20803;-52
2022/12/09 08:24:04;;;;;;;3.17;1.50;;;2.70;99.90;;;;;;5110336;28;20536;-53
2022/12/09 08:26:32;;;;;;;3.13;1.40;;;3.00;99.90;;;;;;5105616;28;20481;-52
2022/12/09 08:28:59;;;;;;;3.50;1.97;;;3.10;99.90;;;;;;5111769;28;20540;-51
2022/12/09 08:31:27;;;;;;;6.30;1.47;;;3.40;99.90;;;;;;5107148;28;21011;-51
2022/12/09 08:33:54;;;;;;;3.20;1.60;;;3.40;99.90;;;;;;5107640;28;20565;-51
2022/12/09 08:36:23;;;;;;;3.90;1.50;;;3.40;99.90;;;;;;5113281;28;20439;-47
2022/12/09 08:38:51;;;;;;;3.07;1.93;;;3.40;99.90;;;;;;5099210;28;20478;-53
2022/12/09 08:41:21;;;;;;;4.07;1.20;;;3.40;99.90;;;;;;5105246;28;20498;-52
2022/12/09 08:43:48;;;;;;;5.30;2.30;;;3.60;99.90;;;;;;5114286;27;20500;-52
2022/12/09 08:46:15;;;;;;;3.00;1.40;;;3.70;99.90;;;;;;5118876;27;20930;-50
2022/12/09 08:48:43;;;;;;;6.33;2.13;;;3.60;99.90;;;;;;5116598;28;20522;-52
2022/12/09 08:51:11;;;;;;;3.67;1.77;;;3.50;99.90;;;;;;5110368;28;20494;-49
2022/12/09 08:53:39;;;;;;;4.20;1.70;;;3.40;99.90;;;;;;5112128;28;20477;-52
2022/12/09 08:56:11;;;;;;;3.40;1.60;;;3.50;99.90;;;;;;5115848;28;20468;-50
2022/12/09 08:58:40;;;;;;;2.57;1.20;;;3.30;99.90;;;;;;5108674;28;20536;-51
2022/12/09 09:01:08;;;;;;;3.33;1.93;;;3.60;99.90;;;;;;5116387;28;20446;-51
2022/12/09 09:03:34;;;;;;;4.13;1.83;;;3.60;99.90;;;;;;5108926;28;21046;-49
2022/12/09 09:06:03;;;;;;;6.93;1.80;;;3.30;99.90;;;;;;5111183;28;20412;-48
2022/12/09 09:08:30;;;;;;;6.13;2.77;;;3.30;99.90;;;;;;5117037;28;20477;-50
2022/12/09 09:10:58;;;;;;;6.57;3.20;;;3.20;99.90;;;;;;5117195;28;20449;-51
2022/12/09 09:13:25;;;;;;;3.20;1.90;;;3.10;99.90;;;;;;5109659;28;20862;-46
2022/12/09 09:15:53;;;;;;;3.13;1.80;;;2.90;99.90;;;;;;5109893;28;20556;-51
2022/12/09 09:18:20;;;;;;;4.87;2.20;;;2.60;99.90;;;;;;5115825;28;20481;-48
2022/12/09 09:20:51;;;;;;;3.13;1.77;;;2.30;99.90;;;;;;5110304;28;20436;-49
2022/12/09 09:23:18;;;;;;;6.40;2.67;;;2.30;99.90;;;;;;5115074;28;20451;-48
2022/12/09 09:25:45;;;;;;;6.53;2.63;;;2.40;99.90;;;;;;5111257;28;20886;-50
2022/12/09 09:28:12;;;;;;;2.70;1.40;;;2.50;99.90;;;;;;5108805;28;20971;-51
2022/12/09 09:30:39;;;;;;;4.23;1.50;;;2.40;99.90;;;;;;5115177;28;20415;-50
2022/12/09 09:33:07;;;;;;;6.70;2.00;;;2.20;99.90;;;;;;5108545;28;20447;-50
2022/12/09 09:35:34;;;;;;;3.87;1.80;;;2.20;99.90;;;;;;5112799;28;20520;-51
2022/12/09 09:38:02;;;;;;;6.10;1.87;;;2.40;99.90;;;;;;5105239;28;20523;-50
2022/12/09 09:40:30;;;;;;;3.90;2.00;;;2.30;99.90;;;;;;5099419;28;20426;-48
2022/12/09 09:42:58;;;;;;;3.80;1.73;;;2.20;99.90;;;;;;5110007;28;20520;-49
2022/12/09 09:45:25;;;;;;;9.03;2.77;;;2.60;99.90;;;;;;5112819;28;20510;-51
2022/12/09 09:47:56;;;;;;;3.90;1.60;;;2.50;99.90;;;;;;5111164;28;20473;-50
2022/12/09 09:50:32;;;;;;;6.37;2.20;;;2.40;99.90;;;;;;5109066;28;20498;-47
2022/12/09 09:53:11;;;;;;;4.50;1.90;;;2.20;99.90;;;;;;5114882;28;20472;-47
2022/12/09 09:55:43;;;;;;;7.33;3.03;;;2.10;99.90;;;;;;5099668;28;20476;-52
2022/12/09 09:58:16;;;;;;;3.03;1.40;;;1.90;99.90;;;;;;5116926;28;20476;-53
2022/12/09 10:00:51;;;;;;;8.50;2.73;;;2.20;99.90;;;;;;5108636;28;21068;-52
2022/12/09 10:03:31;;;;;;;5.33;2.80;;;2.40;99.90;;;;;;5114222;28;20564;-51
2022/12/09 10:06:06;;;;;;;5.30;2.20;;;2.70;99.90;;;;;;5115475;28;20477;-50
2022/12/09 10:08:41;;;;;;;5.53;2.07;;;2.60;99.90;;;;;;5109541;28;20480;-51
2022/12/09 10:11:17;;;;;;;5.10;2.10;;;2.60;99.90;;;;;;5115927;28;20831;-51
2022/12/09 10:13:48;;;;;;;7.90;1.67;;;2.50;99.90;;;;;;5095360;28;20466;-51
2022/12/09 10:16:19;;;;;;;4.13;1.90;;;2.60;99.90;;;;;;5109486;28;20466;-48
2022/12/09 10:18:59;;;;;;;6.03;3.13;;;2.60;99.90;;;;;;5115530;28;20506;-48
2022/12/09 10:21:30;;;;;;;3.33;1.70;;;2.80;99.90;;;;;;5115487;28;20476;-48
2022/12/09 10:24:11;;;;;;;4.93;2.77;;;2.80;99.90;;;;;;5115478;28;20568;-49
2022/12/09 10:26:39;;;;;;;5.47;2.27;;;2.80;99.90;;;;;;5116623;28;20446;-49
2022/12/09 10:29:15;;;;;;;7.63;2.57;;;2.70;99.90;;;;;;5116080;28;20453;-49
2022/12/09 10:31:42;;;;;;;5.90;3.40;;;2.90;99.90;;;;;;5097818;28;20876;-48
2022/12/09 10:34:10;;;;;;;7.70;3.07;;;3.10;99.90;;;;;;5113557;28;21101;-49
2022/12/09 10:36:42;;;;;;;4.90;2.83;;;3.30;99.90;;;;;;5114484;28;20734;-52
2022/12/09 10:39:14;;;;;;;6.67;3.07;;;3.20;99.90;;;;;;5114094;28;20784;-50
2022/12/09 10:44:29;;;;;;;3.80;2.03;;;3.00;99.90;;;;;;5114633;28;20398;-50
2022/12/09 10:47:02;;;;;;;4.13;2.37;;;3.00;99.90;;;;;;5112900;28;20824;-48
2022/12/09 10:49:29;;;;;;;5.43;2.33;;;2.90;99.90;;;;;;5109426;28;20974;-53
2022/12/09 10:51:58;;;;;;;5.80;2.00;;;2.60;99.90;;;;;;5113160;28;20488;-47
2022/12/09 10:54:35;;;;;;;5.57;3.20;;;2.50;99.90;;;;;;5111441;28;20484;-50
2022/12/09 10:57:07;;;;;;;6.13;2.73;;;2.40;99.90;;;;;;5111489;28;20456;-51
2022/12/09 10:59:35;;;;;;;5.37;2.40;;;2.50;99.90;;;;;;5114316;28;20443;-51
2022/12/09 11:02:17;;;;;;;5.90;3.63;;;2.50;99.90;;;;;;5108697;28;20409;-50
2022/12/09 11:04:45;;;;;;;8.23;3.90;;;2.60;99.90;;;;;;5093550;28;20567;-51
2022/12/09 11:07:18;;;;;;;7.03;3.03;;;2.60;99.90;;;;;;5109712;28;20490;-51
2022/12/09 11:09:46;;;;;;;10.07;4.07;;;2.60;99.90;;;;;;5108548;28;20433;-51
2022/12/09 11:12:19;;;;;;;11.70;4.97;;;2.60;99.90;;;;;;5114170;28;20931;-52
2022/12/09 11:14:51;;;;;;;7.87;4.13;;;2.80;99.90;;;;;;5114797;28;20533;-51
2022/12/09 11:17:21;;;;;;;6.23;3.40;;;3.00;99.90;;;;;;5112499;28;20446;-50
2022/12/09 11:19:52;;;;;;;7.93;3.97;;;3.10;99.90;;;;;;5112992;28;20819;-53
2022/12/09 11:22:37;;;;;;;5.80;2.30;;;3.20;99.90;;;;;;5112272;28;20484;-56
2022/12/09 11:25:24;;;;;;;7.93;4.37;;;3.30;99.90;;;;;;5112448;28;20507;-60
2022/12/09 11:27:53;;;;;;;6.97;4.07;;;3.50;99.90;;;;;;5097615;28;20450;-61
2022/12/09 11:30:23;;;;;;;5.20;2.27;;;3.30;99.90;;;;;;5109491;28;20543;-62
2022/12/09 11:32:56;;;;;;;8.70;5.20;;;3.20;99.90;;;;;;5113937;28;20471;-62
2022/12/09 11:35:29;;;;;;;7.93;3.50;;;3.10;99.90;;;;;;5114427;28;20911;-62
2022/12/09 11:37:59;;;;;;;10.07;4.03;;;3.00;99.90;;;;;;5113760;28;20451;-61
2022/12/09 11:40:28;;;;;;;6.87;4.47;;;3.30;99.90;;;;;;5113757;28;20834;-62
2022/12/09 11:42:56;;;;;;;5.17;2.50;;;3.60;99.90;;;;;;5112241;28;20603;-63
2022/12/09 11:45:30;;;;;;;9.30;3.90;;;3.70;99.90;;;;;;5112807;28;20450;-62
2022/12/09 11:48:08;;;;;;;10.73;3.33;;;3.80;99.90;;;;;;5112559;28;20457;-63
2022/12/09 11:50:41;;;;;;;18.20;9.03;;;3.90;99.90;;;;;;5114187;28;20418;-62
2022/12/09 11:53:23;;;;;;;23.83;9.60;;;3.90;99.90;;;;;;5112730;28;20509;-63
2022/12/09 11:55:54;;;;;;;8.13;3.03;;;3.70;99.90;;;;;;5110105;28;20407;-64
2022/12/09 11:58:25;;;;;;;5.67;3.90;;;3.80;99.90;;;;;;5112788;28;20459;-64
2022/12/09 12:00:58;;;;;;;8.30;4.27;;;3.90;99.90;;;;;;5111800;28;20415;-64
2022/12/09 12:03:34;;;;;;;7.67;3.43;;;3.60;99.90;;;;;;5109623;28;21030;-61
2022/12/09 12:06:04;;;;;;;7.33;3.80;;;3.30;99.90;;;;;;5114832;28;20435;-62
2022/12/09 12:08:42;;;;;;;7.20;2.70;;;3.40;99.90;;;;;;5113042;28;20423;-63
2022/12/09 12:11:12;;;;;;;6.40;3.90;;;3.20;99.90;;;;;;5113300;28;20952;-63
2022/12/09 12:13:43;;;;;;;5.10;3.47;;;3.20;99.90;;;;;;5113580;28;20532;-63
2022/12/09 12:16:14;;;;;;;5.53;4.40;;;3.40;99.90;;;;;;5114611;28;20438;-63
2022/12/09 12:18:46;;;;;;;3.40;2.80;;;3.50;99.90;;;;;;5116178;28;20448;-63
2022/12/09 12:21:38;;;;;;;9.70;4.43;;;3.40;99.90;;;;;;5116730;28;20520;-63
2022/12/09 12:24:45;;;;;;;7.70;4.33;;;3.50;99.90;;;;;;5102784;28;20554;-61
2022/12/09 12:27:28;;;;;;;6.87;3.93;;;3.50;99.90;;;;;;5106302;28;20480;-62
2022/12/09 12:30:02;;;;;;;7.60;3.50;;;3.20;99.90;;;;;;5107046;28;20510;-62
2022/12/09 12:32:40;;;;;;;6.57;2.90;;;3.30;99.90;;;;;;5108832;28;20504;-62
2022/12/09 12:35:29;;;;;;;7.70;4.40;;;3.40;99.90;;;;;;5116078;28;20464;-62
2022/12/09 12:38:09;;;;;;;5.90;4.07;;;3.50;99.90;;;;;;5101153;28;20458;-64
2022/12/09 12:40:48;;;;;;;4.93;3.30;;;3.30;99.90;;;;;;5115445;28;20468;-65
2022/12/09 12:46:33;;;;;;;5.13;3.17;;;3.40;99.90;;;;;;5105161;28;20694;-64
2022/12/09 12:49:16;;;;;;;9.20;3.23;;;3.30;99.90;;;;;;5116994;28;20530;-63
2022/12/09 12:51:52;;;;;;;7.50;5.00;;;3.40;99.90;;;;;;5116633;28;20455;-65
2022/12/09 12:54:26;;;;;;;8.90;3.60;;;3.60;99.90;;;;;;5115520;28;20527;-64
2022/12/09 12:57:06;;;;;;;6.80;2.70;;;3.70;99.90;;;;;;5116949;28;20415;-63
2022/12/09 12:59:42;;;;;;;5.37;3.37;;;3.50;99.90;;;;;;5117666;27;20423;-64
2022/12/09 13:02:23;;;;;;;9.67;2.23;;;3.30;99.90;;;;;;5114729;28;21060;-64
2022/12/09 13:04:55;;;;;;;6.33;3.27;;;3.10;99.90;;;;;;5114323;28;20672;-65
2022/12/09 13:07:38;;;;;;;5.53;3.20;;;3.10;99.90;;;;;;5114611;28;20451;-64
2022/12/09 13:10:17;;;;;;;5.10;3.37;;;3.30;99.90;;;;;;5115412;27;20532;-65
2022/12/09 13:12:55;;;;;;;9.23;4.00;;;3.50;99.90;;;;;;5114923;27;20825;-63
2022/12/09 13:15:30;;;;;;;6.97;4.87;;;3.60;99.90;;;;;;5117065;28;20659;-63
2022/12/09 13:18:03;;;;;;;9.57;4.33;;;3.70;99.90;;;;;;5117477;28;20465;-64